Loebau, Texas
Current Conditions -  °F | °C
As of 10:15 PM on Friday 24 Oct 2014 (Local Time) from KGYB Reporting Station
Clear Clear  
Wind Chill: 67°   Ceiling: Unl
Heat Index: 67°   Visibility: 10mi
Dew Point: 58°   Wind: 0mph
Humidity: 71%   Direction: NA
Pressure: 30.18"   Gusts: NA
Location:  30.3175°N, 96.9747°W
Report Text: KGYB 250315Z AUTO 00000KT 10SM CLR 20/14 A3018 RMK AO2 T01950142
Loading
Personal Weather Stations






























Interactive Weather Map
Tropical Storm Tracking
New forecast layout! Learn more

10-Day Weather Forecast

Advertisements
Track Severe Weather on mobile